createdAt,value
2023-01-13T00:01:12.181Z,6.89
2023-01-13T00:04:01.146Z,6.88
2023-01-13T00:06:49.376Z,6.89
2023-01-13T00:09:37.519Z,6.87
2023-01-13T00:12:25.306Z,6.86
2023-01-13T00:15:13.907Z,6.87
2023-01-13T00:18:01.933Z,6.89
2023-01-13T00:21:03.901Z,6.90
2023-01-13T00:23:54.287Z,6.91
2023-01-13T00:26:42.548Z,6.92
2023-01-13T00:29:30.552Z,6.96
2023-01-13T00:32:18.324Z,6.98
2023-01-13T00:35:06.842Z,7.00
2023-01-13T00:37:55.024Z,7.01
2023-01-13T00:40:42.939Z,7.03
2023-01-13T00:43:32.893Z,7.05
2023-01-13T00:46:22.381Z,7.07
2023-01-13T00:49:10.887Z,7.07
2023-01-13T00:52:00.076Z,7.08
2023-01-13T00:54:48.051Z,7.09
2023-01-13T00:57:36.106Z,7.08
2023-01-13T01:00:24.860Z,7.08
2023-01-13T01:03:12.657Z,7.06
2023-01-13T01:06:14.160Z,7.05
2023-01-13T01:09:02.760Z,7.02
2023-01-13T01:11:51.185Z,7.04
2023-01-13T01:14:38.908Z,7.05
2023-01-13T01:17:28.353Z,7.02
2023-01-13T01:20:16.409Z,7.02
2023-01-13T01:23:04.452Z,7.01
2023-01-13T01:25:52.174Z,6.99
2023-01-13T01:28:41.001Z,6.98
2023-01-13T01:31:32.979Z,7.00
2023-01-13T01:34:20.826Z,7.01
2023-01-13T01:37:09.082Z,7.02
2023-01-13T01:39:56.819Z,7.01
2023-01-13T01:43:03.233Z,7.02
2023-01-13T01:45:52.746Z,7.04
2023-01-13T01:48:43.192Z,7.06
2023-01-13T01:51:37.331Z,7.09
2023-01-13T01:54:34.596Z,7.10
2023-01-13T01:57:40.416Z,7.11
2023-01-13T02:00:29.913Z,7.12
2023-01-13T02:03:19.024Z,7.13
2023-01-13T02:06:08.394Z,7.13
2023-01-13T02:08:57.382Z,7.14
2023-01-13T02:12:03.422Z,7.15
2023-01-13T02:14:51.509Z,7.16
2023-01-13T02:17:48.055Z,7.15
2023-01-13T02:20:51.023Z,7.12
2023-01-13T02:24:28.047Z,7.09
2023-01-13T02:28:23.517Z,7.04
2023-01-13T02:31:33.951Z,7.00
2023-01-13T02:35:04.200Z,6.96
2023-01-13T02:37:53.486Z,6.95
2023-01-13T02:40:47.984Z,6.93
2023-01-13T02:43:58.205Z,6.92
2023-01-13T02:46:50.059Z,6.88
2023-01-13T02:49:43.792Z,6.86
2023-01-13T02:52:44.895Z,6.87
2023-01-13T02:55:48.740Z,6.86
2023-01-13T02:58:39.563Z,6.85
2023-01-13T03:01:28.021Z,6.86
2023-01-13T03:04:52.073Z,6.86
2023-01-13T03:07:47.992Z,6.88
2023-01-13T03:11:08.981Z,6.87
2023-01-13T03:14:36.240Z,6.85
2023-01-13T03:18:02.066Z,6.86
2023-01-13T03:21:21.248Z,6.86
2023-01-13T03:24:34.093Z,6.88
2023-01-13T03:27:34.441Z,6.87
2023-01-13T03:31:05.539Z,6.89
2023-01-13T03:34:03.621Z,6.91
2023-01-13T03:36:55.239Z,6.92
2023-01-13T03:39:55.247Z,6.93
2023-01-13T03:43:07.047Z,6.92
2023-01-13T03:46:00.369Z,6.93
2023-01-13T03:48:52.853Z,6.93
2023-01-13T03:51:44.014Z,6.96
2023-01-13T03:54:34.462Z,6.99
2023-01-13T03:57:29.869Z,6.97
2023-01-13T04:00:19.745Z,6.98
2023-01-13T04:03:12.409Z,7.00
2023-01-13T04:06:10.415Z,6.99
2023-01-13T04:09:44.707Z,7.01
2023-01-13T04:13:02.060Z,7.02
2023-01-13T04:15:50.786Z,7.01
2023-01-13T04:18:40.188Z,7.00
2023-01-13T04:21:31.934Z,7.02
2023-01-13T04:24:19.565Z,7.03
2023-01-13T04:27:07.379Z,7.05
2023-01-13T04:29:54.908Z,7.06
2023-01-13T04:32:42.799Z,7.04
2023-01-13T04:35:30.763Z,7.02
2023-01-13T04:38:21.476Z,7.01
2023-01-13T04:41:09.132Z,7.01
2023-01-13T04:43:56.920Z,7.02
2023-01-13T04:46:44.917Z,7.05
2023-01-13T04:49:33.348Z,7.08
2023-01-13T04:52:21.271Z,7.09
2023-01-13T04:55:10.532Z,7.09
2023-01-13T04:58:10.294Z,7.08
2023-01-13T05:00:58.036Z,7.07
2023-01-13T05:03:45.800Z,7.07
2023-01-13T05:06:34.233Z,7.05
2023-01-13T05:09:21.806Z,7.04
2023-01-13T05:12:29.348Z,7.03
2023-01-13T05:15:35.520Z,7.05
2023-01-13T05:18:23.356Z,7.02
2023-01-13T05:21:31.353Z,7.03
2023-01-13T05:24:37.549Z,7.04
2023-01-13T05:27:25.578Z,7.03
2023-01-13T05:30:13.948Z,7.05
2023-01-13T05:33:01.558Z,7.05
2023-01-13T05:35:49.878Z,7.06
2023-01-13T05:38:37.486Z,7.07
2023-01-13T05:41:43.792Z,7.08
2023-01-13T05:44:31.799Z,7.07
2023-01-13T05:47:19.546Z,7.10
2023-01-13T05:50:08.034Z,7.11
2023-01-13T05:52:56.024Z,7.09
2023-01-13T05:55:45.892Z,7.12
2023-01-13T05:58:34.640Z,7.14
2023-01-13T06:01:22.096Z,7.16
2023-01-13T06:04:09.937Z,7.16
2023-01-13T06:06:58.167Z,7.16
2023-01-13T06:09:46.775Z,7.18
2023-01-13T06:12:34.563Z,7.18
2023-01-13T06:15:22.957Z,7.22
2023-01-13T06:18:10.825Z,7.27
2023-01-13T06:20:58.882Z,7.30
2023-01-13T06:23:46.561Z,7.33
2023-01-13T06:26:40.677Z,7.34
2023-01-13T06:29:28.355Z,7.37
2023-01-13T06:32:27.576Z,7.39
2023-01-13T06:35:20.892Z,7.40
2023-01-13T06:38:12.650Z,7.42
2023-01-13T06:41:01.053Z,7.42
2023-01-13T06:43:48.521Z,7.44
2023-01-13T06:46:36.316Z,7.46
2023-01-13T06:49:23.925Z,7.48
2023-01-13T06:52:11.691Z,7.51
2023-01-13T06:54:59.649Z,7.54
2023-01-13T06:57:57.124Z,7.55
2023-01-13T07:00:44.595Z,7.56
2023-01-13T07:03:32.894Z,7.55
2023-01-13T07:06:20.954Z,7.56
2023-01-13T07:09:08.842Z,7.56
2023-01-13T07:11:56.547Z,7.54
2023-01-13T07:15:04.298Z,7.51
2023-01-13T07:17:52.584Z,7.52
2023-01-13T07:20:40.077Z,7.56
2023-01-13T07:23:30.013Z,7.60
2023-01-13T07:26:17.771Z,7.61
2023-01-13T07:29:05.714Z,7.60
2023-01-13T07:31:53.419Z,7.62
2023-01-13T07:34:41.480Z,7.61
2023-01-13T07:37:29.509Z,7.61
2023-01-13T07:40:17.635Z,7.59
2023-01-13T07:43:23.794Z,7.54
2023-01-13T07:46:13.434Z,7.54
2023-01-13T07:49:01.361Z,7.50
2023-01-13T07:51:49.544Z,7.52
2023-01-13T07:54:40.914Z,7.52
2023-01-13T07:57:30.391Z,7.52
2023-01-13T08:00:19.685Z,7.51
2023-01-13T08:03:07.787Z,7.51
2023-01-13T08:05:55.749Z,7.52
2023-01-13T08:08:43.508Z,7.49
2023-01-13T08:11:31.349Z,7.52
2023-01-13T08:14:19.382Z,7.53
2023-01-13T08:17:10.557Z,7.53
2023-01-13T08:19:58.307Z,7.53
2023-01-13T08:22:46.247Z,7.56
2023-01-13T08:25:34.119Z,7.55
2023-01-13T08:28:24.559Z,7.58
2023-01-13T08:31:20.287Z,7.63
2023-01-13T08:34:08.306Z,7.68
2023-01-13T08:36:56.032Z,7.69
2023-01-13T08:39:44.168Z,7.70
2023-01-13T08:42:33.070Z,7.72
2023-01-13T08:45:23.988Z,7.74
2023-01-13T08:48:11.746Z,7.75
2023-01-13T08:51:09.839Z,7.75
2023-01-13T08:53:58.453Z,7.76
2023-01-13T08:56:47.787Z,7.79
2023-01-13T08:59:35.738Z,7.78
2023-01-13T09:02:25.249Z,7.80
2023-01-13T09:05:13.090Z,7.81
2023-01-13T09:08:00.820Z,7.84
2023-01-13T09:10:48.615Z,7.87
2023-01-13T09:13:36.633Z,7.88
2023-01-13T09:16:24.466Z,7.90
2023-01-13T09:19:12.434Z,7.90
2023-01-13T09:22:00.341Z,7.87
2023-01-13T09:24:48.274Z,7.85
2023-01-13T09:27:36.673Z,7.83
2023-01-13T09:30:25.155Z,7.82
2023-01-13T09:33:31.178Z,7.82
2023-01-13T09:36:19.775Z,7.83
2023-01-13T09:39:07.521Z,7.83
2023-01-13T09:42:20.180Z,7.82
2023-01-13T09:45:42.641Z,7.79
2023-01-13T09:48:52.262Z,7.78
2023-01-13T09:51:48.909Z,7.78
2023-01-13T09:55:09.161Z,7.80
2023-01-13T09:57:57.010Z,7.79
2023-01-13T10:01:00.595Z,7.77
2023-01-13T10:03:49.518Z,7.73
2023-01-13T10:06:43.685Z,7.74
2023-01-13T10:09:59.626Z,7.74
2023-01-13T10:13:08.898Z,7.76
2023-01-13T10:16:12.351Z,7.76
2023-01-13T10:19:17.966Z,7.77
2023-01-13T10:22:18.805Z,7.87
2023-01-13T10:25:12.376Z,7.98
2023-01-13T10:28:14.104Z,8.03
2023-01-13T10:31:09.934Z,8.09
2023-01-13T10:34:06.744Z,8.09
2023-01-13T10:37:06.630Z,8.13
2023-01-13T10:40:01.944Z,8.18
2023-01-13T10:43:06.591Z,8.24
2023-01-13T10:46:04.285Z,8.30
2023-01-13T10:48:58.588Z,9.02
2023-01-13T10:51:46.626Z,9.15
2023-01-13T10:54:35.885Z,9.12
2023-01-13T10:57:28.385Z,9.14
2023-01-13T11:00:35.106Z,9.34
2023-01-13T11:03:28.015Z,9.78
2023-01-13T11:06:31.000Z,9.71
2023-01-13T11:09:22.848Z,10.06
2023-01-13T11:12:40.321Z,11.96
2023-01-13T11:15:44.913Z,13.90
2023-01-13T11:19:02.754Z,14.18
2023-01-13T11:22:10.099Z,13.92
2023-01-13T11:25:02.570Z,13.48
2023-01-13T11:28:02.681Z,13.66
2023-01-13T11:31:05.564Z,14.69
2023-01-13T11:34:11.579Z,14.98
2023-01-13T11:37:01.772Z,15.38
2023-01-13T11:40:13.224Z,14.42
2023-01-13T11:43:39.811Z,13.50
2023-01-13T11:46:28.888Z,13.56
2023-01-13T11:49:30.942Z,13.40
2023-01-13T11:52:56.538Z,13.16
2023-01-13T11:56:05.548Z,13.44
2023-01-13T11:59:11.229Z,13.78
2023-01-13T12:02:50.199Z,13.52
2023-01-13T12:05:44.741Z,12.88
2023-01-13T12:08:50.851Z,12.43
2023-01-13T12:12:11.628Z,11.82
2023-01-13T12:15:36.052Z,11.44
2023-01-13T12:19:13.383Z,10.85
2023-01-13T12:22:14.119Z,10.39
2023-01-13T12:25:37.574Z,10.03
2023-01-13T12:28:38.285Z,9.74
2023-01-13T12:31:28.277Z,9.58
2023-01-13T12:34:47.731Z,9.51
2023-01-13T12:37:48.779Z,9.45
2023-01-13T12:41:23.697Z,9.29
2023-01-13T12:44:18.613Z,9.11
2023-01-13T12:47:51.556Z,9.10
2023-01-13T12:50:41.088Z,9.05
2023-01-13T12:53:33.839Z,9.10
2023-01-13T12:56:45.421Z,9.16
2023-01-13T12:59:35.396Z,9.20
2023-01-13T13:02:31.405Z,9.26
2023-01-13T13:05:25.731Z,9.29
2023-01-13T13:08:53.043Z,9.26
2023-01-13T13:11:58.374Z,9.21
2023-01-13T13:14:46.387Z,9.11
2023-01-13T13:17:34.278Z,9.03
2023-01-13T13:21:05.649Z,8.93
2023-01-13T13:23:53.244Z,8.83
2023-01-13T13:26:46.840Z,8.80
2023-01-13T13:29:48.212Z,8.74
2023-01-13T13:32:41.922Z,8.66
2023-01-13T13:35:41.882Z,8.61
2023-01-13T13:39:39.852Z,8.55
2023-01-13T13:42:55.057Z,8.49
2023-01-13T13:46:11.052Z,8.45
2023-01-13T13:48:58.853Z,8.38
2023-01-13T13:52:04.245Z,8.33
2023-01-13T13:54:59.739Z,8.31
2023-01-13T13:57:51.134Z,8.26
2023-01-13T14:00:39.810Z,8.22
2023-01-13T14:03:39.929Z,8.15
2023-01-13T14:06:29.458Z,8.07
2023-01-13T14:09:21.718Z,8.04
2023-01-13T14:12:20.375Z,8.00
2023-01-13T14:15:37.031Z,7.94
2023-01-13T14:18:26.767Z,7.87
2023-01-13T14:21:37.279Z,7.84
2023-01-13T14:24:25.261Z,7.82
2023-01-13T14:27:19.093Z,7.78
2023-01-13T14:30:11.589Z,7.72
2023-01-13T14:33:00.359Z,7.66
2023-01-13T14:36:36.846Z,7.64
2023-01-13T14:39:40.153Z,7.60
2023-01-13T14:42:29.792Z,7.54
2023-01-13T14:45:24.921Z,7.56
2023-01-13T14:48:14.424Z,7.54
2023-01-13T14:51:05.907Z,7.54
2023-01-13T14:53:54.087Z,7.52
2023-01-13T14:56:47.282Z,7.51
2023-01-13T14:59:40.584Z,7.49
2023-01-13T15:02:31.983Z,7.47
2023-01-13T15:05:23.911Z,7.43
2023-01-13T15:08:11.753Z,7.42
2023-01-13T15:11:04.083Z,7.42
2023-01-13T15:14:01.733Z,7.35
2023-01-13T15:17:16.956Z,7.31
2023-01-13T15:20:13.703Z,7.27
2023-01-13T15:23:01.739Z,7.26
2023-01-13T15:25:50.074Z,7.23
2023-01-13T15:28:38.211Z,7.22
2023-01-13T15:31:27.416Z,7.19
2023-01-13T15:34:15.328Z,7.16
2023-01-13T15:37:03.035Z,7.13
2023-01-13T15:39:51.123Z,7.11
2023-01-13T15:42:57.449Z,7.09
2023-01-13T15:46:05.240Z,7.06
2023-01-13T15:48:54.955Z,7.03
2023-01-13T15:51:42.993Z,6.98
2023-01-13T15:54:31.033Z,6.95
2023-01-13T15:57:35.778Z,6.93
2023-01-13T16:00:25.059Z,6.94
2023-01-13T16:03:14.461Z,6.91
2023-01-13T16:06:02.349Z,6.88
2023-01-13T16:08:50.297Z,6.80
2023-01-13T16:11:38.046Z,6.72
2023-01-13T16:14:26.036Z,6.64
2023-01-13T16:17:21.718Z,6.59
2023-01-13T16:20:17.895Z,6.53
2023-01-13T16:23:05.803Z,6.50
2023-01-13T16:25:53.679Z,6.46
2023-01-13T16:28:41.531Z,6.44
2023-01-13T16:31:33.071Z,6.40
2023-01-13T16:34:21.012Z,6.38
2023-01-13T16:37:25.237Z,6.35
2023-01-13T16:40:33.448Z,6.33
2023-01-13T16:43:21.691Z,6.28
2023-01-13T16:46:21.746Z,6.19
2023-01-13T16:49:15.317Z,6.11
2023-01-13T16:52:04.593Z,6.00
2023-01-13T16:54:52.616Z,5.91
2023-01-13T16:57:41.482Z,5.78
2023-01-13T17:00:30.195Z,5.72
2023-01-13T17:03:18.255Z,5.65
2023-01-13T17:06:07.699Z,5.60
2023-01-13T17:09:04.803Z,5.54
2023-01-13T17:11:53.039Z,5.49
2023-01-13T17:14:43.427Z,5.46
2023-01-13T17:17:31.604Z,5.43
2023-01-13T17:20:19.793Z,5.41
2023-01-13T17:23:08.255Z,5.38
2023-01-13T17:25:55.875Z,5.36
2023-01-13T17:28:46.443Z,5.33
2023-01-13T17:31:36.037Z,5.30
2023-01-13T17:34:24.326Z,5.31
2023-01-13T17:37:15.231Z,5.31
2023-01-13T17:40:03.021Z,5.30
2023-01-13T17:42:51.011Z,5.28
2023-01-13T17:45:41.881Z,5.29
2023-01-13T17:48:29.557Z,5.27
2023-01-13T17:51:18.991Z,5.26
2023-01-13T17:54:12.314Z,5.24
2023-01-13T17:57:00.542Z,5.28
2023-01-13T17:59:50.075Z,5.28
2023-01-13T18:02:38.019Z,5.28
2023-01-13T18:05:26.038Z,5.29
2023-01-13T18:08:15.751Z,5.28
2023-01-13T18:11:05.032Z,5.27
2023-01-13T18:13:56.689Z,5.26
2023-01-13T18:16:44.921Z,5.24
2023-01-13T18:19:51.383Z,5.22
2023-01-13T18:22:57.973Z,5.19
2023-01-13T18:26:06.356Z,5.18
2023-01-13T18:28:54.120Z,5.18
2023-01-13T18:31:42.449Z,5.18
2023-01-13T18:34:30.393Z,5.21
2023-01-13T18:37:18.587Z,5.25
2023-01-13T18:40:10.765Z,5.31
2023-01-13T18:42:59.325Z,5.36
2023-01-13T18:45:51.473Z,5.41
2023-01-13T18:48:39.585Z,5.47
2023-01-13T18:51:27.651Z,5.51
2023-01-13T18:54:15.454Z,5.54
2023-01-13T18:57:03.933Z,5.53
2023-01-13T18:59:52.435Z,5.55
2023-01-13T19:02:41.074Z,5.56
2023-01-13T19:05:29.813Z,5.55
2023-01-13T19:08:18.138Z,5.54
2023-01-13T19:11:07.200Z,5.51
2023-01-13T19:13:55.201Z,5.45
2023-01-13T19:16:43.049Z,5.38
2023-01-13T19:19:31.751Z,5.33
2023-01-13T19:22:28.579Z,5.27
2023-01-13T19:25:16.257Z,5.21
2023-01-13T19:28:04.326Z,5.15
2023-01-13T19:30:53.005Z,5.07
2023-01-13T19:33:41.090Z,5.02
2023-01-13T19:36:28.800Z,4.98
2023-01-13T19:39:16.693Z,4.94
2023-01-13T19:42:23.077Z,4.89
2023-01-13T19:45:31.015Z,4.86
2023-01-13T19:48:18.704Z,4.84
2023-01-13T19:51:07.560Z,4.83
2023-01-13T19:53:55.563Z,4.82
2023-01-13T19:56:43.652Z,4.83
2023-01-13T19:59:35.565Z,4.84
2023-01-13T20:02:31.510Z,4.88
2023-01-13T20:05:22.784Z,4.93
2023-01-13T20:08:11.230Z,4.94
2023-01-13T20:11:19.054Z,4.95
2023-01-13T20:14:07.457Z,4.93
2023-01-13T20:16:55.288Z,4.90
2023-01-13T20:19:43.564Z,4.89
2023-01-13T20:22:31.614Z,4.88
2023-01-13T20:25:20.561Z,4.85
2023-01-13T20:28:08.544Z,4.83
2023-01-13T20:30:56.363Z,4.81
2023-01-13T20:33:44.317Z,4.77
2023-01-13T20:36:37.414Z,4.77
2023-01-13T20:39:29.372Z,4.75
2023-01-13T20:42:38.009Z,4.72
2023-01-13T20:45:26.195Z,4.69
2023-01-13T20:48:14.041Z,4.66
2023-01-13T20:51:03.013Z,4.64
2023-01-13T20:53:50.791Z,4.63
2023-01-13T20:56:38.891Z,4.60
2023-01-13T20:59:26.598Z,4.57
2023-01-13T21:02:16.617Z,4.56
2023-01-13T21:05:04.820Z,4.53
2023-01-13T21:07:52.869Z,4.52
2023-01-13T21:10:41.205Z,4.50
2023-01-13T21:13:47.557Z,4.48
2023-01-13T21:16:35.542Z,4.45
2023-01-13T21:19:28.909Z,4.43
2023-01-13T21:22:16.987Z,4.41
2023-01-13T21:25:05.889Z,4.37
2023-01-13T21:27:54.989Z,4.35
2023-01-13T21:30:44.235Z,4.33
2023-01-13T21:33:32.211Z,4.29
2023-01-13T21:36:19.801Z,4.23
2023-01-13T21:39:07.947Z,4.23
2023-01-13T21:42:43.659Z,4.20
2023-01-13T21:45:50.090Z,4.16
2023-01-13T21:48:38.006Z,4.12
2023-01-13T21:51:26.540Z,4.08
2023-01-13T21:54:14.609Z,4.07
2023-01-13T21:57:02.369Z,4.07
2023-01-13T21:59:50.162Z,4.06
2023-01-13T22:02:38.277Z,4.06
2023-01-13T22:05:26.607Z,4.07
2023-01-13T22:08:14.426Z,4.09
2023-01-13T22:11:03.157Z,4.13
2023-01-13T22:14:10.037Z,4.17
2023-01-13T22:17:00.984Z,4.20
2023-01-13T22:19:50.209Z,4.20
2023-01-13T22:22:39.206Z,4.26
2023-01-13T22:25:26.886Z,4.26
2023-01-13T22:28:23.920Z,4.29
2023-01-13T22:31:15.150Z,4.31
2023-01-13T22:34:03.100Z,4.33
2023-01-13T22:36:50.923Z,4.35
2023-01-13T22:39:39.876Z,4.34
2023-01-13T22:42:27.729Z,4.33
2023-01-13T22:45:16.328Z,4.32
2023-01-13T22:48:04.614Z,4.30
2023-01-13T22:50:52.545Z,4.29
2023-01-13T22:53:43.475Z,4.27
2023-01-13T22:56:34.038Z,4.26
2023-01-13T22:59:29.717Z,4.25
2023-01-13T23:02:22.660Z,4.24
2023-01-13T23:05:13.879Z,4.24
2023-01-13T23:08:02.067Z,4.25
2023-01-13T23:10:49.975Z,4.26
2023-01-13T23:13:39.568Z,4.28
2023-01-13T23:16:29.310Z,4.30
2023-01-13T23:19:17.502Z,4.33
2023-01-13T23:22:05.117Z,4.34
2023-01-13T23:24:53.091Z,4.36
2023-01-13T23:27:41.873Z,4.41
2023-01-13T23:30:29.577Z,4.44
2023-01-13T23:33:18.403Z,4.48
2023-01-13T23:36:09.330Z,4.55
2023-01-13T23:38:59.469Z,4.60
2023-01-13T23:41:46.945Z,4.65
2023-01-13T23:44:34.657Z,4.70
2023-01-13T23:47:22.804Z,4.76
2023-01-13T23:50:11.201Z,4.79
2023-01-13T23:52:59.118Z,4.83
2023-01-13T23:55:46.679Z,4.85
2023-01-13T23:58:35.597Z,4.85
